sensor_id;sensor_type;location;lat;lon;timestamp;P1;durP1;ratioP1;P2;durP2;ratioP2
42134;SDS011;28312;43.460;11.810;2023-02-01T00:01:59;10.82;;;7.57;;
42134;SDS011;28312;43.460;11.810;2023-02-01T00:06:03;12.23;;;9.60;;
42134;SDS011;28312;43.460;11.810;2023-02-01T00:10:07;14.15;;;9.65;;
42134;SDS011;28312;43.460;11.810;2023-02-01T00:14:11;15.25;;;8.45;;
42134;SDS011;28312;43.460;11.810;2023-02-01T00:18:15;11.13;;;7.80;;
42134;SDS011;28312;43.460;11.810;2023-02-01T00:22:19;10.18;;;7.32;;
42134;SDS011;28312;43.460;11.810;2023-02-01T00:30:31;9.52;;;8.32;;
42134;SDS011;28312;43.460;11.810;2023-02-01T00:34:34;18.45;;;11.75;;
42134;SDS011;28312;43.460;11.810;2023-02-01T00:38:37;12.38;;;9.38;;
42134;SDS011;28312;43.460;11.810;2023-02-01T00:42:42;10.00;;;6.47;;
42134;SDS011;28312;43.460;11.810;2023-02-01T00:46:45;11.55;;;8.20;;
42134;SDS011;28312;43.460;11.810;2023-02-01T00:50:49;15.07;;;9.68;;
42134;SDS011;28312;43.460;11.810;2023-02-01T00:54:52;11.27;;;8.57;;
42134;SDS011;28312;43.460;11.810;2023-02-01T00:58:56;11.32;;;7.35;;
42134;SDS011;28312;43.460;11.810;2023-02-01T01:02:59;11.50;;;8.75;;
42134;SDS011;28312;43.460;11.810;2023-02-01T01:07:02;18.55;;;8.25;;
42134;SDS011;28312;43.460;11.810;2023-02-01T01:11:09;18.67;;;10.93;;
42134;SDS011;28312;43.460;11.810;2023-02-01T01:15:16;8.98;;;6.55;;
42134;SDS011;28312;43.460;11.810;2023-02-01T01:19:19;17.88;;;8.57;;
42134;SDS011;28312;43.460;11.810;2023-02-01T01:23:22;10.57;;;7.82;;
42134;SDS011;28312;43.460;11.810;2023-02-01T01:27:26;15.68;;;10.93;;
42134;SDS011;28312;43.460;11.810;2023-02-01T01:31:31;18.63;;;10.93;;
42134;SDS011;28312;43.460;11.810;2023-02-01T01:35:35;15.40;;;9.02;;
42134;SDS011;28312;43.460;11.810;2023-02-01T01:39:40;12.23;;;8.20;;
42134;SDS011;28312;43.460;11.810;2023-02-01T01:43:50;12.60;;;9.20;;
42134;SDS011;28312;43.460;11.810;2023-02-01T01:47:59;10.27;;;7.55;;
42134;SDS011;28312;43.460;11.810;2023-02-01T01:52:08;11.15;;;7.93;;
42134;SDS011;28312;43.460;11.810;2023-02-01T01:56:12;14.85;;;10.32;;
42134;SDS011;28312;43.460;11.810;2023-02-01T02:00:16;13.35;;;10.30;;
42134;SDS011;28312;43.460;11.810;2023-02-01T02:04:23;15.85;;;12.15;;
42134;SDS011;28312;43.460;11.810;2023-02-01T02:08:27;12.93;;;9.00;;
42134;SDS011;28312;43.460;11.810;2023-02-01T02:12:31;18.25;;;12.60;;
42134;SDS011;28312;43.460;11.810;2023-02-01T02:34:25;11.23;;;8.00;;
42134;SDS011;28312;43.460;11.810;2023-02-01T02:38:55;14.27;;;9.88;;
42134;SDS011;28312;43.460;11.810;2023-02-01T02:47:51;7.60;;;5.25;;
42134;SDS011;28312;43.460;11.810;2023-02-01T02:52:05;9.85;;;6.60;;
42134;SDS011;28312;43.460;11.810;2023-02-01T02:56:56;6.82;;;4.75;;
42134;SDS011;28312;43.460;11.810;2023-02-01T03:01:21;11.68;;;7.30;;
42134;SDS011;28312;43.460;11.810;2023-02-01T03:05:45;11.20;;;7.13;;
42134;SDS011;28312;43.460;11.810;2023-02-01T03:09:50;7.60;;;6.18;;
42134;SDS011;28312;43.460;11.810;2023-02-01T03:13:55;9.85;;;6.57;;
42134;SDS011;28312;43.460;11.810;2023-02-01T03:18:03;7.97;;;5.65;;
42134;SDS011;28312;43.460;11.810;2023-02-01T03:22:14;11.02;;;6.90;;
42134;SDS011;28312;43.460;11.810;2023-02-01T03:26:22;11.68;;;9.02;;
42134;SDS011;28312;43.460;11.810;2023-02-01T03:30:34;9.35;;;6.63;;
42134;SDS011;28312;43.460;11.810;2023-02-01T03:34:40;10.13;;;7.28;;
42134;SDS011;28312;43.460;11.810;2023-02-01T03:38:50;10.25;;;7.28;;
42134;SDS011;28312;43.460;11.810;2023-02-01T03:42:58;10.73;;;8.18;;
42134;SDS011;28312;43.460;11.810;2023-02-01T03:47:08;11.63;;;8.33;;
42134;SDS011;28312;43.460;11.810;2023-02-01T03:51:18;8.68;;;6.18;;
42134;SDS011;28312;43.460;11.810;2023-02-01T03:55:28;11.20;;;7.63;;
42134;SDS011;28312;43.460;11.810;2023-02-01T03:59:38;11.20;;;8.63;;
42134;SDS011;28312;43.460;11.810;2023-02-01T04:03:44;9.20;;;6.53;;
42134;SDS011;28312;43.460;11.810;2023-02-01T04:07:48;10.73;;;8.20;;
42134;SDS011;28312;43.460;11.810;2023-02-01T04:11:51;7.68;;;6.20;;
42134;SDS011;28312;43.460;11.810;2023-02-01T04:15:54;10.10;;;7.38;;
42134;SDS011;28312;43.460;11.810;2023-02-01T04:19:58;10.55;;;7.47;;
42134;SDS011;28312;43.460;11.810;2023-02-01T04:24:01;10.13;;;7.22;;
42134;SDS011;28312;43.460;11.810;2023-02-01T04:28:05;11.90;;;8.13;;
42134;SDS011;28312;43.460;11.810;2023-02-01T04:32:09;10.70;;;8.25;;
42134;SDS011;28312;43.460;11.810;2023-02-01T04:36:13;16.30;;;10.93;;
42134;SDS011;28312;43.460;11.810;2023-02-01T04:40:17;10.63;;;7.55;;
42134;SDS011;28312;43.460;11.810;2023-02-01T04:44:20;13.10;;;9.25;;
42134;SDS011;28312;43.460;11.810;2023-02-01T04:48:24;11.18;;;7.90;;
42134;SDS011;28312;43.460;11.810;2023-02-01T04:52:28;9.27;;;6.03;;
42134;SDS011;28312;43.460;11.810;2023-02-01T04:56:31;12.52;;;9.00;;
42134;SDS011;28312;43.460;11.810;2023-02-01T05:00:36;10.02;;;7.63;;
42134;SDS011;28312;43.460;11.810;2023-02-01T05:04:40;10.45;;;7.50;;
42134;SDS011;28312;43.460;11.810;2023-02-01T05:08:43;13.05;;;9.20;;
42134;SDS011;28312;43.460;11.810;2023-02-01T05:12:46;9.07;;;6.22;;
42134;SDS011;28312;43.460;11.810;2023-02-01T05:17:08;12.38;;;8.55;;
42134;SDS011;28312;43.460;11.810;2023-02-01T05:21:11;11.25;;;7.88;;
42134;SDS011;28312;43.460;11.810;2023-02-01T05:25:15;12.93;;;7.63;;
42134;SDS011;28312;43.460;11.810;2023-02-01T05:29:18;13.98;;;10.57;;
42134;SDS011;28312;43.460;11.810;2023-02-01T05:33:22;9.80;;;8.18;;
42134;SDS011;28312;43.460;11.810;2023-02-01T05:37:25;9.98;;;6.63;;
42134;SDS011;28312;43.460;11.810;2023-02-01T05:41:30;10.48;;;7.68;;
42134;SDS011;28312;43.460;11.810;2023-02-01T05:45:34;12.15;;;8.70;;
42134;SDS011;28312;43.460;11.810;2023-02-01T05:49:42;9.95;;;7.43;;
42134;SDS011;28312;43.460;11.810;2023-02-01T05:53:45;10.88;;;7.22;;
42134;SDS011;28312;43.460;11.810;2023-02-01T05:57:49;8.98;;;7.22;;
42134;SDS011;28312;43.460;11.810;2023-02-01T06:01:53;8.23;;;6.32;;
42134;SDS011;28312;43.460;11.810;2023-02-01T06:05:56;11.35;;;6.40;;
42134;SDS011;28312;43.460;11.810;2023-02-01T06:10:00;7.47;;;4.72;;
42134;SDS011;28312;43.460;11.810;2023-02-01T06:14:04;8.73;;;6.75;;
42134;SDS011;28312;43.460;11.810;2023-02-01T06:18:07;11.20;;;8.27;;
42134;SDS011;28312;43.460;11.810;2023-02-01T06:22:10;11.35;;;7.10;;
42134;SDS011;28312;43.460;11.810;2023-02-01T06:26:13;11.48;;;7.55;;
42134;SDS011;28312;43.460;11.810;2023-02-01T06:30:17;14.43;;;9.65;;
42134;SDS011;28312;43.460;11.810;2023-02-01T06:34:21;9.48;;;6.47;;
42134;SDS011;28312;43.460;11.810;2023-02-01T06:38:25;9.90;;;7.63;;
42134;SDS011;28312;43.460;11.810;2023-02-01T06:42:29;12.15;;;8.48;;
42134;SDS011;28312;43.460;11.810;2023-02-01T06:46:32;11.57;;;6.72;;
42134;SDS011;28312;43.460;11.810;2023-02-01T06:50:36;10.32;;;7.75;;
42134;SDS011;28312;43.460;11.810;2023-02-01T06:54:39;14.35;;;5.80;;
42134;SDS011;28312;43.460;11.810;2023-02-01T06:58:42;10.25;;;6.10;;
42134;SDS011;28312;43.460;11.810;2023-02-01T07:02:46;7.03;;;4.93;;
42134;SDS011;28312;43.460;11.810;2023-02-01T07:06:49;7.82;;;4.72;;
42134;SDS011;28312;43.460;11.810;2023-02-01T07:10:52;14.18;;;6.93;;
42134;SDS011;28312;43.460;11.810;2023-02-01T07:14:56;7.82;;;5.55;;
42134;SDS011;28312;43.460;11.810;2023-02-01T07:18:59;8.95;;;5.43;;
42134;SDS011;28312;43.460;11.810;2023-02-01T07:23:03;8.70;;;5.78;;
42134;SDS011;28312;43.460;11.810;2023-02-01T07:27:06;8.05;;;5.82;;
42134;SDS011;28312;43.460;11.810;2023-02-01T07:31:11;9.55;;;7.38;;
42134;SDS011;28312;43.460;11.810;2023-02-01T07:35:20;9.30;;;5.53;;
42134;SDS011;28312;43.460;11.810;2023-02-01T07:39:24;8.68;;;5.18;;
42134;SDS011;28312;43.460;11.810;2023-02-01T07:43:30;9.73;;;6.53;;
42134;SDS011;28312;43.460;11.810;2023-02-01T07:47:36;8.27;;;4.68;;
42134;SDS011;28312;43.460;11.810;2023-02-01T07:51:39;15.02;;;7.95;;
42134;SDS011;28312;43.460;11.810;2023-02-01T07:55:42;7.82;;;4.57;;
42134;SDS011;28312;43.460;11.810;2023-02-01T07:59:47;6.35;;;4.38;;
42134;SDS011;28312;43.460;11.810;2023-02-01T08:04:13;7.88;;;5.50;;
42134;SDS011;28312;43.460;11.810;2023-02-01T08:08:19;11.48;;;6.60;;
42134;SDS011;28312;43.460;11.810;2023-02-01T08:12:22;7.22;;;4.68;;
42134;SDS011;28312;43.460;11.810;2023-02-01T08:16:27;8.27;;;4.72;;
42134;SDS011;28312;43.460;11.810;2023-02-01T08:20:31;5.18;;;3.40;;
42134;SDS011;28312;43.460;11.810;2023-02-01T08:24:36;6.05;;;4.20;;
42134;SDS011;28312;43.460;11.810;2023-02-01T08:28:44;5.88;;;4.03;;
42134;SDS011;28312;43.460;11.810;2023-02-01T08:33:00;9.65;;;5.43;;
42134;SDS011;28312;43.460;11.810;2023-02-01T08:37:03;5.43;;;3.92;;
42134;SDS011;28312;43.460;11.810;2023-02-01T08:41:08;3.97;;;1.98;;
42134;SDS011;28312;43.460;11.810;2023-02-01T08:45:20;8.43;;;6.38;;
42134;SDS011;28312;43.460;11.810;2023-02-01T08:49:28;8.27;;;6.50;;
42134;SDS011;28312;43.460;11.810;2023-02-01T08:53:32;8.77;;;6.18;;
42134;SDS011;28312;43.460;11.810;2023-02-01T08:57:36;5.40;;;4.15;;
42134;SDS011;28312;43.460;11.810;2023-02-01T09:01:40;7.57;;;4.53;;
42134;SDS011;28312;43.460;11.810;2023-02-01T09:05:43;4.10;;;3.03;;
42134;SDS011;28312;43.460;11.810;2023-02-01T09:09:51;7.47;;;4.38;;
42134;SDS011;28312;43.460;11.810;2023-02-01T09:13:56;8.63;;;6.55;;
42134;SDS011;28312;43.460;11.810;2023-02-01T09:18:00;4.88;;;3.58;;
42134;SDS011;28312;43.460;11.810;2023-02-01T09:22:03;5.18;;;3.28;;
42134;SDS011;28312;43.460;11.810;2023-02-01T09:26:07;9.32;;;6.32;;
42134;SDS011;28312;43.460;11.810;2023-02-01T09:30:12;9.05;;;4.80;;
42134;SDS011;28312;43.460;11.810;2023-02-01T09:34:15;6.90;;;4.97;;
42134;SDS011;28312;43.460;11.810;2023-02-01T09:38:19;9.27;;;4.90;;
42134;SDS011;28312;43.460;11.810;2023-02-01T09:46:53;9.48;;;5.68;;
42134;SDS011;28312;43.460;11.810;2023-02-01T09:50:59;7.28;;;4.78;;
42134;SDS011;28312;43.460;11.810;2023-02-01T09:55:07;9.85;;;6.75;;
42134;SDS011;28312;43.460;11.810;2023-02-01T09:59:29;8.27;;;6.15;;
42134;SDS011;28312;43.460;11.810;2023-02-01T10:03:48;7.78;;;5.78;;
42134;SDS011;28312;43.460;11.810;2023-02-01T10:16:51;8.23;;;4.85;;
42134;SDS011;28312;43.460;11.810;2023-02-01T10:25:26;8.80;;;5.25;;
42134;SDS011;28312;43.460;11.810;2023-02-01T10:29:47;11.50;;;7.85;;
42134;SDS011;28312;43.460;11.810;2023-02-01T10:34:21;13.07;;;9.32;;
42134;SDS011;28312;43.460;11.810;2023-02-01T10:38:29;8.60;;;6.43;;
42134;SDS011;28312;43.460;11.810;2023-02-01T10:42:34;12.38;;;8.82;;
42134;SDS011;28312;43.460;11.810;2023-02-01T10:46:39;10.48;;;6.25;;
42134;SDS011;28312;43.460;11.810;2023-02-01T10:50:44;9.30;;;5.82;;
42134;SDS011;28312;43.460;11.810;2023-02-01T10:55:00;8.90;;;5.25;;
42134;SDS011;28312;43.460;11.810;2023-02-01T10:59:36;7.10;;;4.78;;
42134;SDS011;28312;43.460;11.810;2023-02-01T11:07:51;12.10;;;7.43;;
42134;SDS011;28312;43.460;11.810;2023-02-01T11:11:58;9.77;;;5.75;;
42134;SDS011;28312;43.460;11.810;2023-02-01T11:16:03;12.65;;;7.68;;
42134;SDS011;28312;43.460;11.810;2023-02-01T11:20:12;8.68;;;6.45;;
42134;SDS011;28312;43.460;11.810;2023-02-01T11:24:22;11.15;;;8.48;;
42134;SDS011;28312;43.460;11.810;2023-02-01T11:28:37;10.25;;;7.20;;
42134;SDS011;28312;43.460;11.810;2023-02-01T11:32:42;8.63;;;5.82;;
42134;SDS011;28312;43.460;11.810;2023-02-01T11:40:55;9.38;;;5.30;;
42134;SDS011;28312;43.460;11.810;2023-02-01T11:45:18;6.90;;;5.30;;
42134;SDS011;28312;43.460;11.810;2023-02-01T11:49:26;9.85;;;5.68;;
42134;SDS011;28312;43.460;11.810;2023-02-01T12:06:53;6.70;;;4.25;;
42134;SDS011;28312;43.460;11.810;2023-02-01T12:15:31;5.32;;;3.03;;
42134;SDS011;28312;43.460;11.810;2023-02-01T12:46:33;10.00;;;3.75;;
42134;SDS011;28312;43.460;11.810;2023-02-01T12:51:06;9.63;;;5.00;;
42134;SDS011;28312;43.460;11.810;2023-02-01T12:55:17;7.97;;;5.28;;
42134;SDS011;28312;43.460;11.810;2023-02-01T12:59:40;13.82;;;6.30;;
42134;SDS011;28312;43.460;11.810;2023-02-01T13:08:02;12.13;;;6.75;;
42134;SDS011;28312;43.460;11.810;2023-02-01T13:12:14;21.55;;;7.35;;
42134;SDS011;28312;43.460;11.810;2023-02-01T13:20:48;8.15;;;4.95;;
42134;SDS011;28312;43.460;11.810;2023-02-01T13:29:13;13.00;;;7.35;;
42134;SDS011;28312;43.460;11.810;2023-02-01T13:38:01;7.70;;;5.72;;
42134;SDS011;28312;43.460;11.810;2023-02-01T13:42:17;7.22;;;4.25;;
42134;SDS011;28312;43.460;11.810;2023-02-01T13:46:23;9.95;;;5.90;;
42134;SDS011;28312;43.460;11.810;2023-02-01T13:50:37;6.68;;;4.43;;
42134;SDS011;28312;43.460;11.810;2023-02-01T13:54:43;13.82;;;8.02;;
42134;SDS011;28312;43.460;11.810;2023-02-01T13:58:51;9.85;;;6.18;;
42134;SDS011;28312;43.460;11.810;2023-02-01T14:07:03;9.32;;;5.82;;
42134;SDS011;28312;43.460;11.810;2023-02-01T14:11:53;8.13;;;5.45;;
42134;SDS011;28312;43.460;11.810;2023-02-01T14:24:43;15.60;;;10.23;;
42134;SDS011;28312;43.460;11.810;2023-02-01T14:28:57;7.55;;;4.22;;
42134;SDS011;28312;43.460;11.810;2023-02-01T14:33:24;15.38;;;7.00;;
42134;SDS011;28312;43.460;11.810;2023-02-01T14:41:35;8.90;;;5.25;;
42134;SDS011;28312;43.460;11.810;2023-02-01T14:49:47;9.98;;;4.90;;
42134;SDS011;28312;43.460;11.810;2023-02-01T14:58:05;8.50;;;4.60;;
42134;SDS011;28312;43.460;11.810;2023-02-01T15:02:23;8.15;;;4.45;;
42134;SDS011;28312;43.460;11.810;2023-02-01T15:06:32;11.73;;;5.38;;
42134;SDS011;28312;43.460;11.810;2023-02-01T15:10:44;14.48;;;6.65;;
42134;SDS011;28312;43.460;11.810;2023-02-01T15:19:29;7.45;;;4.72;;
42134;SDS011;28312;43.460;11.810;2023-02-01T15:23:36;10.73;;;6.88;;
42134;SDS011;28312;43.460;11.810;2023-02-01T15:27:39;12.77;;;6.70;;
42134;SDS011;28312;43.460;11.810;2023-02-01T15:31:44;10.27;;;6.65;;
42134;SDS011;28312;43.460;11.810;2023-02-01T15:35:50;9.02;;;4.10;;
42134;SDS011;28312;43.460;11.810;2023-02-01T15:48:46;17.35;;;11.07;;
42134;SDS011;28312;43.460;11.810;2023-02-01T15:52:55;12.50;;;7.03;;
42134;SDS011;28312;43.460;11.810;2023-02-01T15:56:59;11.88;;;6.38;;
42134;SDS011;28312;43.460;11.810;2023-02-01T16:01:05;16.43;;;9.83;;
42134;SDS011;28312;43.460;11.810;2023-02-01T16:05:30;15.15;;;7.43;;
42134;SDS011;28312;43.460;11.810;2023-02-01T16:09:40;12.88;;;9.18;;
42134;SDS011;28312;43.460;11.810;2023-02-01T16:13:55;10.13;;;7.47;;
42134;SDS011;28312;43.460;11.810;2023-02-01T16:18:05;11.90;;;6.18;;
42134;SDS011;28312;43.460;11.810;2023-02-01T16:22:12;8.50;;;5.47;;
42134;SDS011;28312;43.460;11.810;2023-02-01T16:26:16;15.90;;;9.05;;
42134;SDS011;28312;43.460;11.810;2023-02-01T16:30:19;12.85;;;6.25;;
42134;SDS011;28312;43.460;11.810;2023-02-01T16:34:26;12.45;;;6.70;;
42134;SDS011;28312;43.460;11.810;2023-02-01T16:38:30;9.38;;;5.90;;
42134;SDS011;28312;43.460;11.810;2023-02-01T16:42:34;10.27;;;5.40;;
42134;SDS011;28312;43.460;11.810;2023-02-01T16:46:44;8.87;;;6.43;;
42134;SDS011;28312;43.460;11.810;2023-02-01T16:50:52;12.38;;;7.80;;
42134;SDS011;28312;43.460;11.810;2023-02-01T16:54:57;10.40;;;7.15;;
42134;SDS011;28312;43.460;11.810;2023-02-01T16:59:01;8.32;;;5.32;;
42134;SDS011;28312;43.460;11.810;2023-02-01T17:03:04;11.88;;;6.57;;
42134;SDS011;28312;43.460;11.810;2023-02-01T17:07:12;10.40;;;6.82;;
42134;SDS011;28312;43.460;11.810;2023-02-01T17:11:17;9.45;;;5.75;;
42134;SDS011;28312;43.460;11.810;2023-02-01T17:15:20;8.18;;;6.55;;
42134;SDS011;28312;43.460;11.810;2023-02-01T17:19:25;9.95;;;7.22;;
42134;SDS011;28312;43.460;11.810;2023-02-01T17:23:29;15.00;;;8.88;;
42134;SDS011;28312;43.460;11.810;2023-02-01T17:27:33;14.00;;;7.47;;
42134;SDS011;28312;43.460;11.810;2023-02-01T17:32:00;13.35;;;8.55;;
42134;SDS011;28312;43.460;11.810;2023-02-01T17:36:03;11.52;;;7.63;;
42134;SDS011;28312;43.460;11.810;2023-02-01T17:40:08;10.90;;;7.60;;
42134;SDS011;28312;43.460;11.810;2023-02-01T17:44:12;13.40;;;9.00;;
42134;SDS011;28312;43.460;11.810;2023-02-01T17:48:16;15.05;;;9.13;;
42134;SDS011;28312;43.460;11.810;2023-02-01T17:52:20;11.35;;;8.85;;
42134;SDS011;28312;43.460;11.810;2023-02-01T17:56:26;11.60;;;8.95;;
42134;SDS011;28312;43.460;11.810;2023-02-01T18:00:30;11.57;;;8.82;;
42134;SDS011;28312;43.460;11.810;2023-02-01T18:04:34;19.80;;;10.98;;
42134;SDS011;28312;43.460;11.810;2023-02-01T18:08:39;8.73;;;6.97;;
42134;SDS011;28312;43.460;11.810;2023-02-01T18:12:42;11.35;;;8.95;;
42134;SDS011;28312;43.460;11.810;2023-02-01T18:16:46;8.35;;;7.30;;
42134;SDS011;28312;43.460;11.810;2023-02-01T18:20:50;17.38;;;11.10;;
42134;SDS011;28312;43.460;11.810;2023-02-01T18:24:57;14.40;;;10.82;;
42134;SDS011;28312;43.460;11.810;2023-02-01T18:29:00;9.90;;;7.10;;
42134;SDS011;28312;43.460;11.810;2023-02-01T18:33:04;13.60;;;9.68;;
42134;SDS011;28312;43.460;11.810;2023-02-01T18:37:09;12.15;;;9.43;;
42134;SDS011;28312;43.460;11.810;2023-02-01T18:41:14;36.88;;;33.25;;
42134;SDS011;28312;43.460;11.810;2023-02-01T18:45:26;14.95;;;9.60;;
42134;SDS011;28312;43.460;11.810;2023-02-01T18:49:33;11.88;;;8.82;;
42134;SDS011;28312;43.460;11.810;2023-02-01T18:53:40;12.77;;;7.18;;
42134;SDS011;28312;43.460;11.810;2023-02-01T18:57:44;12.52;;;10.20;;
42134;SDS011;28312;43.460;11.810;2023-02-01T19:01:49;13.98;;;11.40;;
42134;SDS011;28312;43.460;11.810;2023-02-01T19:05:54;8.23;;;7.38;;
42134;SDS011;28312;43.460;11.810;2023-02-01T19:10:00;10.43;;;7.43;;
42134;SDS011;28312;43.460;11.810;2023-02-01T19:14:07;6.85;;;5.05;;
42134;SDS011;28312;43.460;11.810;2023-02-01T19:18:13;6.43;;;4.00;;
42134;SDS011;28312;43.460;11.810;2023-02-01T19:22:24;17.77;;;11.57;;
42134;SDS011;28312;43.460;11.810;2023-02-01T19:26:34;11.73;;;9.77;;
42134;SDS011;28312;43.460;11.810;2023-02-01T19:30:38;12.65;;;10.43;;
42134;SDS011;28312;43.460;11.810;2023-02-01T19:34:41;12.32;;;7.25;;
42134;SDS011;28312;43.460;11.810;2023-02-01T19:38:45;14.27;;;10.55;;
42134;SDS011;28312;43.460;11.810;2023-02-01T19:42:48;18.60;;;12.85;;
42134;SDS011;28312;43.460;11.810;2023-02-01T19:46:51;16.90;;;13.77;;
42134;SDS011;28312;43.460;11.810;2023-02-01T19:50:55;14.23;;;11.50;;
42134;SDS011;28312;43.460;11.810;2023-02-01T19:55:03;14.10;;;10.90;;
42134;SDS011;28312;43.460;11.810;2023-02-01T19:59:06;15.35;;;12.55;;
42134;SDS011;28312;43.460;11.810;2023-02-01T20:03:10;15.00;;;12.43;;
42134;SDS011;28312;43.460;11.810;2023-02-01T20:07:13;21.10;;;15.77;;
42134;SDS011;28312;43.460;11.810;2023-02-01T20:11:19;20.20;;;15.37;;
42134;SDS011;28312;43.460;11.810;2023-02-01T20:15:24;25.48;;;19.48;;
42134;SDS011;28312;43.460;11.810;2023-02-01T20:19:30;16.88;;;11.93;;
42134;SDS011;28312;43.460;11.810;2023-02-01T20:23:34;21.40;;;14.43;;
42134;SDS011;28312;43.460;11.810;2023-02-01T20:27:39;21.58;;;16.65;;
42134;SDS011;28312;43.460;11.810;2023-02-01T20:31:42;21.85;;;17.73;;
42134;SDS011;28312;43.460;11.810;2023-02-01T20:35:47;22.23;;;16.15;;
42134;SDS011;28312;43.460;11.810;2023-02-01T20:39:50;24.35;;;16.92;;
42134;SDS011;28312;43.460;11.810;2023-02-01T20:43:54;27.13;;;19.35;;
42134;SDS011;28312;43.460;11.810;2023-02-01T20:47:57;9.27;;;6.70;;
42134;SDS011;28312;43.460;11.810;2023-02-01T20:52:00;25.95;;;19.00;;
42134;SDS011;28312;43.460;11.810;2023-02-01T20:56:04;21.23;;;15.75;;
42134;SDS011;28312;43.460;11.810;2023-02-01T21:00:09;21.30;;;16.95;;
42134;SDS011;28312;43.460;11.810;2023-02-01T21:04:13;20.55;;;15.07;;
42134;SDS011;28312;43.460;11.810;2023-02-01T21:08:16;20.23;;;15.05;;
42134;SDS011;28312;43.460;11.810;2023-02-01T21:12:21;43.28;;;37.10;;
42134;SDS011;28312;43.460;11.810;2023-02-01T21:16:25;25.83;;;20.55;;
42134;SDS011;28312;43.460;11.810;2023-02-01T21:20:31;22.90;;;18.42;;
42134;SDS011;28312;43.460;11.810;2023-02-01T21:24:35;23.02;;;16.83;;
42134;SDS011;28312;43.460;11.810;2023-02-01T21:28:39;26.35;;;21.35;;
42134;SDS011;28312;43.460;11.810;2023-02-01T21:32:43;18.42;;;12.80;;
42134;SDS011;28312;43.460;11.810;2023-02-01T21:36:46;20.27;;;16.90;;
42134;SDS011;28312;43.460;11.810;2023-02-01T21:40:49;21.90;;;16.90;;
42134;SDS011;28312;43.460;11.810;2023-02-01T21:45:13;21.17;;;16.40;;
42134;SDS011;28312;43.460;11.810;2023-02-01T21:49:18;18.30;;;13.95;;
42134;SDS011;28312;43.460;11.810;2023-02-01T21:53:21;20.02;;;14.77;;
42134;SDS011;28312;43.460;11.810;2023-02-01T21:57:26;21.70;;;16.77;;
42134;SDS011;28312;43.460;11.810;2023-02-01T22:01:30;18.73;;;13.60;;
42134;SDS011;28312;43.460;11.810;2023-02-01T22:05:34;19.38;;;14.93;;
42134;SDS011;28312;43.460;11.810;2023-02-01T22:09:38;14.23;;;11.13;;
42134;SDS011;28312;43.460;11.810;2023-02-01T22:13:41;15.15;;;10.70;;
42134;SDS011;28312;43.460;11.810;2023-02-01T22:17:46;24.58;;;13.98;;
42134;SDS011;28312;43.460;11.810;2023-02-01T22:21:50;20.55;;;15.10;;
42134;SDS011;28312;43.460;11.810;2023-02-01T22:26:03;17.63;;;12.27;;
42134;SDS011;28312;43.460;11.810;2023-02-01T22:30:10;18.90;;;14.45;;
42134;SDS011;28312;43.460;11.810;2023-02-01T22:34:14;19.45;;;10.57;;
42134;SDS011;28312;43.460;11.810;2023-02-01T22:38:18;19.08;;;11.60;;
42134;SDS011;28312;43.460;11.810;2023-02-01T22:42:21;19.80;;;13.73;;
42134;SDS011;28312;43.460;11.810;2023-02-01T22:46:26;13.85;;;9.07;;
42134;SDS011;28312;43.460;11.810;2023-02-01T22:50:32;20.25;;;16.20;;
42134;SDS011;28312;43.460;11.810;2023-02-01T22:54:36;17.15;;;14.05;;
42134;SDS011;28312;43.460;11.810;2023-02-01T22:58:42;16.40;;;11.65;;
42134;SDS011;28312;43.460;11.810;2023-02-01T23:02:45;18.75;;;13.65;;
42134;SDS011;28312;43.460;11.810;2023-02-01T23:06:49;21.50;;;12.38;;
42134;SDS011;28312;43.460;11.810;2023-02-01T23:10:57;14.30;;;10.68;;
42134;SDS011;28312;43.460;11.810;2023-02-01T23:15:05;16.42;;;13.55;;
42134;SDS011;28312;43.460;11.810;2023-02-01T23:19:09;19.08;;;13.45;;
42134;SDS011;28312;43.460;11.810;2023-02-01T23:23:12;27.08;;;17.48;;
42134;SDS011;28312;43.460;11.810;2023-02-01T23:27:16;20.38;;;14.68;;
42134;SDS011;28312;43.460;11.810;2023-02-01T23:31:23;18.80;;;13.95;;
42134;SDS011;28312;43.460;11.810;2023-02-01T23:35:29;17.52;;;12.90;;
42134;SDS011;28312;43.460;11.810;2023-02-01T23:39:32;22.17;;;15.82;;
42134;SDS011;28312;43.460;11.810;2023-02-01T23:43:35;21.73;;;15.15;;
42134;SDS011;28312;43.460;11.810;2023-02-01T23:47:58;12.90;;;9.13;;
42134;SDS011;28312;43.460;11.810;2023-02-01T23:52:01;20.00;;;11.73;;
42134;SDS011;28312;43.460;11.810;2023-02-01T23:56:05;14.57;;;11.48;;
